Time;durP1;ratioP1;P1;durP2;ratioP2;P2;SDS_P1;SDS_P2;PMS_P1;PMS_P2;Temp;Humidity;BMP_temperature;BMP_pressure;BME280_temperature;BME280_humidity;BME280_pressure;Samples;Min_cycle;Max_cycle;Signal;HPM_P1;HPM_P2
2022/04/07 00:00:08;;;;;;;3.75;3.45;;;8.20;99.90;;;;;;4969624;28;20070;-83
2022/04/07 00:02:56;;;;;;;4.80;3.90;;;8.20;99.90;;;;;;4972907;28;20075;-83
2022/04/07 00:05:45;;;;;;;4.13;3.72;;;8.20;99.90;;;;;;4975803;28;20374;-82
2022/04/07 00:08:32;;;;;;;9.48;3.90;;;8.10;99.90;;;;;;4973919;28;20204;-84
2022/04/07 00:11:21;;;;;;;4.60;3.65;;;8.10;99.90;;;;;;4975332;28;20074;-85
2022/04/07 00:14:11;;;;;;;6.22;4.20;;;8.10;99.90;;;;;;4976789;28;20129;-84
2022/04/07 00:16:59;;;;;;;8.93;4.03;;;8.10;99.90;;;;;;4966233;28;20197;-83
2022/04/07 00:19:46;;;;;;;5.28;4.72;;;8.10;99.90;;;;;;4977790;28;20042;-85
2022/04/07 00:22:35;;;;;;;4.57;4.18;;;8.10;99.90;;;;;;4985118;28;20086;-84
2022/04/07 00:25:25;;;;;;;5.05;4.55;;;8.10;99.90;;;;;;4965089;28;20677;-83
2022/04/07 00:28:15;;;;;;;5.03;4.00;;;8.10;99.90;;;;;;4980672;28;20082;-84
2022/04/07 00:31:02;;;;;;;9.05;4.72;;;8.00;99.90;;;;;;4986990;28;20058;-86
2022/04/07 00:33:50;;;;;;;5.85;4.22;;;8.00;99.90;;;;;;4976919;28;20058;-83
2022/04/07 00:36:38;;;;;;;4.57;4.18;;;8.00;99.90;;;;;;4978585;28;20087;-85
2022/04/07 00:39:26;;;;;;;9.60;4.47;;;8.00;99.90;;;;;;4975289;28;20051;-86
2022/04/07 00:42:13;;;;;;;4.63;4.18;;;8.00;99.90;;;;;;4975614;28;20050;-85
2022/04/07 00:45:04;;;;;;;4.35;3.90;;;8.00;99.90;;;;;;4976335;28;20145;-86
2022/04/07 00:47:51;;;;;;;5.30;3.70;;;7.90;99.90;;;;;;4974528;28;20047;-85
2022/04/07 00:50:38;;;;;;;6.07;3.85;;;7.90;99.90;;;;;;4975069;28;20098;-86
2022/04/07 00:53:26;;;;;;;4.85;4.35;;;7.90;99.90;;;;;;4985222;28;20074;-86
2022/04/07 00:56:14;;;;;;;7.65;4.47;;;7.90;99.90;;;;;;4978866;28;20047;-85
2022/04/07 00:59:02;;;;;;;4.70;3.83;;;7.90;99.90;;;;;;4971705;28;20182;-84
2022/04/07 01:01:49;;;;;;;4.55;3.72;;;7.90;99.90;;;;;;4974100;28;20470;-84
2022/04/07 01:04:37;;;;;;;6.38;4.32;;;7.90;99.90;;;;;;4974055;28;20043;-85
2022/04/07 01:07:26;;;;;;;4.68;4.13;;;7.90;99.90;;;;;;4971593;28;20051;-84
2022/04/07 01:10:14;;;;;;;4.88;4.25;;;8.00;99.90;;;;;;4974758;28;20070;-84
2022/04/07 01:13:01;;;;;;;7.88;5.13;;;8.00;99.90;;;;;;4968291;28;20735;-87
2022/04/07 01:15:48;;;;;;;6.35;5.15;;;8.00;99.90;;;;;;4970376;28;20064;-84
2022/04/07 01:18:35;;;;;;;5.60;4.53;;;7.90;99.90;;;;;;4973785;28;20047;-86
2022/04/07 01:21:24;;;;;;;5.53;4.85;;;7.90;99.90;;;;;;4951188;28;20105;-86
2022/04/07 01:24:12;;;;;;;9.57;5.45;;;7.90;99.90;;;;;;4965039;28;20047;-87
2022/04/07 01:27:00;;;;;;;6.53;5.13;;;7.90;99.90;;;;;;4971597;28;20145;-86
2022/04/07 01:29:52;;;;;;;5.78;5.07;;;7.80;99.90;;;;;;4961447;28;20421;-85
2022/04/07 01:32:50;;;;;;;6.28;4.93;;;7.80;99.90;;;;;;4959682;28;20062;-83
2022/04/07 01:35:38;;;;;;;4.55;4.13;;;7.80;99.90;;;;;;4966124;28;20050;-85
2022/04/07 01:38:27;;;;;;;4.35;3.90;;;7.70;99.90;;;;;;4971750;28;20082;-85
2022/04/07 01:41:14;;;;;;;6.07;4.22;;;7.70;99.90;;;;;;4966808;28;20109;-87
2022/04/07 01:44:05;;;;;;;4.25;3.30;;;7.70;99.90;;;;;;4972405;28;20115;-86
2022/04/07 01:46:56;;;;;;;3.97;2.97;;;7.60;99.90;;;;;;4971814;28;20071;-85
2022/04/07 01:49:53;;;;;;;3.72;2.75;;;7.60;99.90;;;;;;4968881;28;20062;-83
2022/04/07 01:52:43;;;;;;;2.65;2.45;;;7.70;99.90;;;;;;4969897;28;20109;-85
2022/04/07 01:55:31;;;;;;;2.50;2.30;;;7.70;99.90;;;;;;4967111;28;20353;-86
2022/04/07 01:58:18;;;;;;;2.20;2.00;;;7.70;99.90;;;;;;4973309;28;20437;-85
2022/04/07 02:01:06;;;;;;;4.13;2.22;;;7.70;99.90;;;;;;4971963;28;20071;-86
2022/04/07 02:03:53;;;;;;;3.30;2.30;;;7.70;99.90;;;;;;4972750;28;20059;-86
2022/04/07 02:06:40;;;;;;;3.08;2.00;;;7.60;99.90;;;;;;4974117;28;20046;-86
2022/04/07 02:09:28;;;;;;;2.75;2.53;;;7.50;99.90;;;;;;4973789;28;20047;-85
2022/04/07 02:12:16;;;;;;;3.00;2.40;;;7.50;99.90;;;;;;4979216;28;20129;-86
2022/04/07 02:15:05;;;;;;;4.80;2.25;;;7.50;99.90;;;;;;4974675;28;20072;-85
2022/04/07 02:17:55;;;;;;;3.53;2.10;;;7.40;99.90;;;;;;4974980;28;20131;-84
2022/04/07 02:20:44;;;;;;;2.17;1.98;;;7.50;99.90;;;;;;4957138;28;20078;-83
2022/04/07 02:23:34;;;;;;;1.95;1.85;;;7.50;99.90;;;;;;4965574;28;20396;-84
2022/04/07 02:26:21;;;;;;;1.63;1.52;;;7.60;99.90;;;;;;4955466;28;20066;-85
2022/04/07 02:29:08;;;;;;;1.90;1.70;;;7.60;92.40;;;;;;4968964;28;20714;-83
2022/04/07 02:31:58;;;;;;;3.30;1.85;;;7.70;86.10;;;;;;4970678;28;20149;-84
2022/04/07 02:34:45;;;;;;;1.35;1.25;;;7.70;61.70;;;;;;4960759;28;20125;-83
2022/04/07 02:37:32;;;;;;;1.90;1.70;;;7.80;42.40;;;;;;4973377;28;20121;-86
2022/04/07 02:40:20;;;;;;;2.30;1.52;;;7.80;21.90;;;;;;4971712;28;20035;-85
2022/04/07 02:43:08;;;;;;;2.38;1.63;;;7.80;4.10;;;;;;4970321;28;20142;-83
2022/04/07 02:45:55;;;;;;;1.92;1.50;;;7.80;2.50;;;;;;4969899;28;20043;-84
2022/04/07 02:48:42;;;;;;;1.50;1.40;;;7.80;1.00;;;;;;4970133;28;20448;-83
2022/04/07 02:51:31;;;;;;;1.63;1.27;;;7.90;1.00;;;;;;4970307;28;20069;-82
2022/04/07 02:54:20;;;;;;;1.27;1.17;;;7.90;1.00;;;;;;4961441;28;20050;-82
2022/04/07 02:57:07;;;;;;;2.08;1.52;;;7.90;1.00;;;;;;4973168;28;20066;-84
2022/04/07 02:59:54;;;;;;;1.60;1.50;;;7.90;1.00;;;;;;4955692;28;20089;-81
2022/04/07 03:02:41;;;;;;;1.65;1.45;;;7.90;1.00;;;;;;4972864;28;20130;-82
2022/04/07 03:05:29;;;;;;;2.83;1.70;;;7.80;1.00;;;;;;4974163;28;20344;-82
2022/04/07 03:08:16;;;;;;;2.05;1.23;;;7.80;1.00;;;;;;4968191;28;20051;-83
2022/04/07 03:11:07;;;;;;;1.52;1.42;;;7.90;1.00;;;;;;4990898;28;20447;-82
2022/04/07 03:13:54;;;;;;;2.25;1.38;;;7.80;1.00;;;;;;4969570;28;20459;-82
2022/04/07 03:16:48;;;;;;;3.03;1.60;;;7.80;1.00;;;;;;4967855;28;20043;-83
2022/04/07 03:19:36;;;;;;;1.50;1.40;;;7.80;1.00;;;;;;4971032;28;20071;-81
2022/04/07 03:22:23;;;;;;;2.33;1.88;;;7.90;1.00;;;;;;4963313;28;20066;-84
2022/04/07 03:25:11;;;;;;;4.30;1.75;;;7.90;1.00;;;;;;4990270;28;20491;-82
2022/04/07 03:27:58;;;;;;;2.28;1.80;;;7.90;1.00;;;;;;4958318;28;20213;-82
2022/04/07 03:30:45;;;;;;;3.03;2.25;;;7.90;1.00;;;;;;4967054;28;20118;-81
2022/04/07 03:33:33;;;;;;;3.10;1.90;;;7.90;1.00;;;;;;4966963;28;20364;-83
2022/04/07 03:36:20;;;;;;;5.50;2.00;;;7.90;1.00;;;;;;4972398;28;20054;-82
2022/04/07 03:39:10;;;;;;;4.65;2.10;;;7.90;1.00;;;;;;4969908;28;20046;-82
2022/04/07 03:41:57;;;;;;;3.47;1.88;;;7.80;1.00;;;;;;4972258;28;20415;-81
2022/04/07 03:44:44;;;;;;;3.25;2.17;;;7.80;11.00;;;;;;4972639;28;20445;-83
2022/04/07 03:47:31;;;;;;;3.40;2.00;;;7.70;9.40;;;;;;4957871;28;20904;-82
2022/04/07 03:50:19;;;;;;;1.92;1.60;;;7.70;10.30;;;;;;4970852;28;20051;-83
2022/04/07 03:53:06;;;;;;;2.78;1.90;;;7.60;8.50;;;;;;4973589;28;20372;-83
2022/04/07 03:55:53;;;;;;;2.08;1.45;;;7.60;8.90;;;;;;4965131;28;20130;-81
2022/04/07 03:58:40;;;;;;;3.00;2.00;;;7.80;1.00;;;;;;4971655;28;20106;-83
2022/04/07 04:01:30;;;;;;;3.83;1.70;;;7.80;1.00;;;;;;4970797;28;20097;-83
2022/04/07 04:04:20;;;;;;;1.70;1.60;;;7.80;1.00;;;;;;4969929;28;20043;-82
2022/04/07 04:07:07;;;;;;;3.38;2.00;;;7.80;1.00;;;;;;4970280;28;20051;-82
2022/04/07 04:09:54;;;;;;;2.80;1.90;;;7.90;1.00;;;;;;4962622;28;20050;-81
2022/04/07 04:12:42;;;;;;;2.17;1.73;;;8.00;1.00;;;;;;4966405;28;20130;-83
2022/04/07 04:15:31;;;;;;;2.78;1.67;;;7.90;1.00;;;;;;4968728;28;20531;-84
2022/04/07 04:18:19;;;;;;;2.15;1.27;;;7.80;1.00;;;;;;4964890;28;20043;-85
2022/04/07 04:21:06;;;;;;;5.18;1.95;;;7.70;1.00;;;;;;4971039;28;20051;-81
2022/04/07 04:23:55;;;;;;;1.38;1.23;;;7.70;1.00;;;;;;4964284;28;20070;-84
2022/04/07 04:26:46;;;;;;;3.00;1.80;;;7.80;1.00;;;;;;4972921;28;20204;-83
2022/04/07 04:29:35;;;;;;;3.05;1.75;;;7.70;1.00;;;;;;4972903;28;20051;-84
2022/04/07 04:32:25;;;;;;;1.70;1.55;;;7.90;1.00;;;;;;4974585;28;20043;-82
2022/04/07 04:35:14;;;;;;;2.05;1.60;;;7.90;1.00;;;;;;4975858;28;20058;-80
2022/04/07 04:38:01;;;;;;;1.77;1.67;;;7.90;1.00;;;;;;4968983;28;20058;-82
2022/04/07 04:40:48;;;;;;;2.42;1.40;;;7.90;1.00;;;;;;4969279;28;20129;-82
2022/04/07 04:43:36;;;;;;;1.50;1.40;;;8.00;1.00;;;;;;4961450;28;20047;-81
2022/04/07 04:46:23;;;;;;;2.08;1.52;;;8.00;1.00;;;;;;4981144;28;20051;-83
2022/04/07 04:49:13;;;;;;;1.77;1.20;;;8.00;1.00;;;;;;4975290;28;20046;-83
2022/04/07 04:52:00;;;;;;;2.00;1.10;;;8.10;1.00;;;;;;4962130;28;20125;-82
2022/04/07 04:54:47;;;;;;;2.13;1.20;;;8.10;99.90;;;;;;4974144;28;20377;-85
2022/04/07 04:57:43;;;;;;;1.30;1.20;;;8.10;1.00;;;;;;4966335;28;20050;-84
2022/04/07 05:00:30;;;;;;;1.05;1.05;;;8.10;99.90;;;;;;4966504;28;20051;-87
2022/04/07 05:03:20;;;;;;;1.00;1.00;;;8.10;99.90;;;;;;4959883;28;20047;-85
2022/04/07 05:06:07;;;;;;;1.10;1.00;;;8.20;99.90;;;;;;4975269;28;20055;-86
2022/04/07 05:08:54;;;;;;;1.23;1.13;;;8.10;99.90;;;;;;4980318;28;20054;-83
2022/04/07 05:11:44;;;;;;;2.40;1.10;;;8.00;1.00;;;;;;4973112;28;20103;-84
2022/04/07 05:14:32;;;;;;;1.42;1.15;;;7.90;1.00;;;;;;4942651;28;20087;-85
2022/04/07 05:17:19;;;;;;;2.72;1.40;;;7.90;1.00;;;;;;4970617;28;20102;-84
2022/04/07 05:20:10;;;;;;;2.05;1.10;;;7.90;1.00;;;;;;4977558;28;20042;-86
2022/04/07 05:23:00;;;;;;;1.23;1.00;;;8.00;1.00;;;;;;4960971;28;20095;-87
2022/04/07 05:25:49;;;;;;;3.00;1.20;;;8.00;1.00;;;;;;4975851;28;20062;-83
2022/04/07 05:28:37;;;;;;;1.05;0.90;;;8.00;1.00;;;;;;4975762;28;20042;-84
2022/04/07 05:31:25;;;;;;;1.15;1.10;;;8.10;1.00;;;;;;4959965;28;20057;-85
2022/04/07 05:34:13;;;;;;;1.30;1.20;;;8.10;1.00;;;;;;4983915;28;20149;-84
2022/04/07 05:37:03;;;;;;;1.00;1.00;;;8.00;1.00;;;;;;4993144;28;20144;-84
2022/04/07 05:39:53;;;;;;;1.88;1.20;;;8.10;1.00;;;;;;4968277;28;20043;-83
2022/04/07 05:43:19;;;;;;;1.25;0.90;;;8.10;1.00;;;;;;4974585;28;20350;-86
2022/04/07 05:46:06;;;;;;;1.10;1.00;;;8.20;1.00;;;;;;4972525;28;20047;-86
2022/04/07 05:48:53;;;;;;;1.27;0.90;;;8.20;1.00;;;;;;4955308;28;20052;-88
2022/04/07 05:51:41;;;;;;;0.80;0.80;;;8.30;99.90;;;;;;4972527;28;20047;-87
2022/04/07 05:54:30;;;;;;;1.35;0.82;;;8.40;99.90;;;;;;4973181;28;20110;-85
2022/04/07 05:57:17;;;;;;;0.70;0.70;;;8.50;99.90;;;;;;4964748;28;20054;-82
2022/04/07 06:00:12;;;;;;;1.35;0.75;;;8.70;99.90;;;;;;4952552;28;20081;-84
2022/04/07 06:02:59;;;;;;;1.00;0.60;;;8.80;1.00;;;;;;4964602;28;20038;-85
2022/04/07 06:05:52;;;;;;;0.88;0.77;;;8.90;99.90;;;;;;4973354;28;20449;-84
2022/04/07 06:08:42;;;;;;;1.15;0.60;;;9.00;99.90;;;;;;4972005;28;20053;-84
2022/04/07 06:11:30;;;;;;;0.70;0.70;;;9.10;1.00;;;;;;4973776;28;20057;-82
2022/04/07 06:14:17;;;;;;;1.95;0.70;;;9.10;1.00;;;;;;4974175;28;20066;-82
2022/04/07 06:17:04;;;;;;;1.08;0.70;;;9.10;1.00;;;;;;4973720;28;20129;-84
2022/04/07 06:19:52;;;;;;;0.68;0.68;;;9.20;27.40;;;;;;4975821;28;20057;-82
2022/04/07 06:22:41;;;;;;;1.77;0.77;;;9.30;1.00;;;;;;4965662;28;20408;-83
2022/04/07 06:25:32;;;;;;;2.60;0.60;;;9.30;99.90;;;;;;4971944;28;20119;-82
2022/04/07 06:28:22;;;;;;;0.60;0.60;;;9.30;99.90;;;;;;4956046;28;20073;-83
2022/04/07 06:31:10;;;;;;;1.10;0.70;;;9.30;99.90;;;;;;4968724;28;20042;-83
2022/04/07 06:33:58;;;;;;;0.93;0.70;;;9.20;43.60;;;;;;4973103;28;20058;-82
2022/04/07 06:36:54;;;;;;;1.48;0.73;;;9.20;1.00;;;;;;4986884;28;20042;-85
2022/04/07 06:39:44;;;;;;;0.88;0.70;;;9.20;99.90;;;;;;4971288;28;20039;-85
2022/04/07 06:42:31;;;;;;;0.70;0.70;;;9.20;1.00;;;;;;4973915;28;20057;-83
2022/04/07 06:45:18;;;;;;;1.20;1.00;;;9.20;99.90;;;;;;4975072;28;20043;-83
2022/04/07 06:48:06;;;;;;;1.30;0.73;;;9.20;99.90;;;;;;4972667;28;20488;-83
2022/04/07 06:50:53;;;;;;;0.68;0.68;;;9.20;1.00;;;;;;4975232;28;20054;-83
2022/04/07 06:53:43;;;;;;;0.93;0.82;;;9.20;99.90;;;;;;4992125;28;20499;-83
2022/04/07 06:56:31;;;;;;;1.10;0.70;;;9.20;99.90;;;;;;4956941;28;20494;-87
2022/04/07 06:59:20;;;;;;;3.85;0.80;;;9.20;99.90;;;;;;4982021;28;20105;-83
2022/04/07 07:02:08;;;;;;;1.65;0.63;;;9.20;1.00;;;;;;4964269;28;20043;-83
2022/04/07 07:04:56;;;;;;;1.05;0.70;;;9.20;91.50;;;;;;4990973;28;20133;-83
2022/04/07 07:07:44;;;;;;;0.63;0.60;;;9.10;99.90;;;;;;4965373;28;20330;-83
2022/04/07 07:10:38;;;;;;;1.38;0.85;;;9.00;99.90;;;;;;4972913;28;20061;-83
2022/04/07 07:13:32;;;;;;;0.90;0.80;;;9.10;1.00;;;;;;4976622;28;20062;-84
2022/04/07 07:16:20;;;;;;;0.60;0.60;;;9.30;99.90;;;;;;4972766;28;20046;-83
2022/04/07 07:19:14;;;;;;;0.52;0.50;;;9.50;99.90;;;;;;4973961;28;20077;-84
2022/04/07 07:22:01;;;;;;;0.73;0.65;;;9.70;99.90;;;;;;4971269;28;20338;-85
2022/04/07 07:24:48;;;;;;;1.33;0.80;;;9.70;99.90;;;;;;4985442;28;20365;-83
2022/04/07 07:27:46;;;;;;;2.28;1.42;;;9.80;99.90;;;;;;4972598;28;20047;-85
2022/04/07 07:30:33;;;;;;;2.95;1.13;;;9.90;1.00;;;;;;4972561;28;20070;-85
2022/04/07 07:33:26;;;;;;;0.95;0.80;;;10.00;13.40;;;;;;4970393;28;20367;-84
2022/04/07 07:36:13;;;;;;;1.52;0.70;;;10.00;99.90;;;;;;4985460;28;20133;-83
2022/04/07 07:39:01;;;;;;;3.30;0.90;;;10.10;99.90;;;;;;4973397;28;20066;-83
2022/04/07 07:41:49;;;;;;;1.85;0.50;;;10.10;99.90;;;;;;4972860;28;20049;-85
2022/04/07 07:44:36;;;;;;;1.80;0.70;;;10.10;1.00;;;;;;4972595;28;20185;-83
2022/04/07 07:47:27;;;;;;;0.98;0.70;;;10.10;99.90;;;;;;4993061;28;20057;-86
2022/04/07 07:50:17;;;;;;;1.08;0.80;;;10.20;1.00;;;;;;4974490;28;20416;-84
2022/04/07 07:53:04;;;;;;;1.15;0.73;;;10.10;99.90;;;;;;4966896;28;20051;-83
2022/04/07 07:55:53;;;;;;;1.00;0.70;;;10.10;99.90;;;;;;4952815;28;20054;-84
2022/04/07 07:58:44;;;;;;;2.20;0.80;;;10.10;99.90;;;;;;4960446;28;20066;-82
2022/04/07 08:01:37;;;;;;;0.73;0.73;;;10.10;1.00;;;;;;4976477;28;20065;-84
2022/04/07 08:04:25;;;;;;;1.45;0.70;;;10.10;1.00;;;;;;4991870;28;20042;-82
2022/04/07 08:07:21;;;;;;;1.95;0.90;;;10.10;1.00;;;;;;4977070;28;20059;-82
2022/04/07 08:10:10;;;;;;;1.67;0.88;;;10.20;99.90;;;;;;4975251;28;20376;-84
2022/04/07 08:12:57;;;;;;;2.38;1.02;;;10.40;99.90;;;;;;4974926;28;20405;-82
2022/04/07 08:15:47;;;;;;;0.68;0.60;;;10.70;1.00;;;;;;4962194;28;20784;-83
2022/04/07 08:18:35;;;;;;;4.45;0.90;;;10.90;99.90;;;;;;4976114;28;20531;-82
2022/04/07 08:21:23;;;;;;;0.85;0.68;;;11.00;99.90;;;;;;4975316;28;20043;-83
2022/04/07 08:24:10;;;;;;;3.75;0.80;;;11.20;99.90;;;;;;4976642;28;20046;-83
2022/04/07 08:26:58;;;;;;;0.65;0.60;;;11.20;1.00;;;;;;4971669;28;20047;-85
2022/04/07 08:29:46;;;;;;;1.65;0.60;;;11.10;1.00;;;;;;4970348;28;20137;-84
2022/04/07 08:32:34;;;;;;;2.03;0.65;;;11.20;1.00;;;;;;4964426;28;20492;-84
2022/04/07 08:35:23;;;;;;;0.82;0.60;;;11.20;1.00;;;;;;4970577;28;20101;-85
2022/04/07 08:38:15;;;;;;;0.43;0.43;;;11.00;1.00;;;;;;4952243;28;20098;-84
2022/04/07 08:41:09;;;;;;;1.58;0.60;;;11.00;99.90;;;;;;4975800;28;20454;-83
2022/04/07 08:44:03;;;;;;;0.50;0.50;;;11.60;99.90;;;;;;4980700;28;20050;-82
2022/04/07 08:46:56;;;;;;;2.05;0.70;;;11.90;99.90;;;;;;4967642;28;20039;-85
2022/04/07 08:49:44;;;;;;;0.50;0.45;;;12.40;1.00;;;;;;4975825;28;20047;-84
2022/04/07 08:52:33;;;;;;;2.03;0.52;;;12.40;1.00;;;;;;4974696;28;20165;-85
2022/04/07 08:55:23;;;;;;;1.45;0.60;;;12.80;99.90;;;;;;4984962;28;20050;-81
2022/04/07 08:58:17;;;;;;;1.35;0.65;;;13.00;99.90;;;;;;4976105;28;20058;-82
2022/04/07 09:01:05;;;;;;;1.60;0.60;;;13.00;99.90;;;;;;4961874;28;20050;-84
2022/04/07 09:03:53;;;;;;;2.83;0.68;;;12.80;99.90;;;;;;4976197;28;20115;-84
2022/04/07 09:06:43;;;;;;;0.63;0.50;;;12.20;99.90;;;;;;4975899;28;20047;-84
2022/04/07 09:09:32;;;;;;;1.85;0.60;;;11.90;99.90;;;;;;4988553;28;20151;-81
2022/04/07 09:12:23;;;;;;;0.57;0.43;;;11.60;99.90;;;;;;4975072;28;20203;-82
2022/04/07 09:15:13;;;;;;;0.73;0.73;;;11.60;99.90;;;;;;4955387;29;20055;-83
2022/04/07 09:18:01;;;;;;;0.40;0.40;;;11.50;99.90;;;;;;4980106;28;20057;-82
2022/04/07 09:20:49;;;;;;;1.00;0.60;;;11.40;1.00;;;;;;4966925;28;20387;-82
2022/04/07 09:23:41;;;;;;;2.40;0.60;;;11.40;1.00;;;;;;4975428;28;20126;-83
2022/04/07 09:26:32;;;;;;;1.33;0.57;;;11.30;1.00;;;;;;4961998;28;20340;-84
2022/04/07 09:29:22;;;;;;;1.70;0.70;;;11.20;1.00;;;;;;4975145;28;20042;-83
2022/04/07 09:32:20;;;;;;;3.00;0.77;;;11.20;1.00;;;;;;4982205;28;20043;-82
2022/04/07 09:35:11;;;;;;;1.15;0.60;;;11.30;1.00;;;;;;4965778;28;20042;-84
2022/04/07 09:38:02;;;;;;;2.45;0.55;;;11.00;1.00;;;;;;4972060;28;20170;-84
2022/04/07 09:40:52;;;;;;;1.48;0.47;;;11.00;99.90;;;;;;4966944;28;20390;-82
2022/04/07 09:43:54;;;;;;;1.48;0.70;;;10.90;99.90;;;;;;4962929;28;20047;-81
2022/04/07 09:46:42;;;;;;;0.57;0.57;;;11.00;99.90;;;;;;4954485;28;20086;-82
2022/04/07 09:49:34;;;;;;;1.23;0.60;;;11.10;99.90;;;;;;4963868;28;20043;-82
2022/04/07 09:52:24;;;;;;;2.38;0.60;;;11.30;99.90;;;;;;4975240;28;20050;-84
2022/04/07 09:55:21;;;;;;;1.17;0.68;;;11.10;1.00;;;;;;4974914;28;20058;-84
2022/04/07 09:58:11;;;;;;;0.57;0.57;;;10.90;99.90;;;;;;4973512;28;20053;-85
2022/04/07 10:01:04;;;;;;;1.30;0.52;;;11.30;99.90;;;;;;4973588;28;20381;-81
2022/04/07 10:03:52;;;;;;;0.95;0.80;;;11.20;1.00;;;;;;4973796;28;20051;-82
2022/04/07 10:06:40;;;;;;;0.70;0.70;;;11.30;99.90;;;;;;4988327;28;20047;-85
2022/04/07 10:09:30;;;;;;;1.73;0.60;;;11.40;99.90;;;;;;4978138;28;20352;-81
2022/04/07 10:12:21;;;;;;;0.73;0.50;;;11.50;1.00;;;;;;4960627;28;20130;-82
2022/04/07 10:15:09;;;;;;;0.60;0.50;;;11.50;1.00;;;;;;4972930;28;20087;-81
2022/04/07 10:18:02;;;;;;;0.73;0.57;;;11.60;99.90;;;;;;4973604;28;20097;-84
2022/04/07 10:20:54;;;;;;;1.05;0.40;;;11.60;99.90;;;;;;4969731;28;20062;-83
2022/04/07 10:24:06;;;;;;;0.43;0.43;;;11.50;99.90;;;;;;4964236;28;20047;-82
2022/04/07 10:26:54;;;;;;;0.63;0.60;;;11.60;99.90;;;;;;4973608;28;20053;-83
2022/04/07 10:30:05;;;;;;;1.17;0.50;;;11.50;99.90;;;;;;4963633;28;20061;-82
2022/04/07 10:32:54;;;;;;;0.90;0.55;;;11.50;99.90;;;;;;4963851;28;20050;-82
2022/04/07 10:35:41;;;;;;;1.00;0.50;;;11.60;99.90;;;;;;4977227;28;20480;-82
2022/04/07 10:38:40;;;;;;;0.40;0.40;;;11.80;99.90;;;;;;4957625;28;20388;-80
2022/04/07 10:41:39;;;;;;;0.40;0.40;;;11.80;99.90;;;;;;4944157;28;20464;-82
2022/04/07 10:44:27;;;;;;;0.50;0.50;;;11.60;99.90;;;;;;4974099;28;20153;-82
2022/04/07 10:47:27;;;;;;;1.75;0.50;;;11.60;99.90;;;;;;4974342;28;20118;-85
2022/04/07 10:50:18;;;;;;;0.73;0.40;;;11.60;99.90;;;;;;4974858;28;20046;-82
2022/04/07 10:53:32;;;;;;;0.60;0.60;;;11.80;99.90;;;;;;4989135;28;20043;-83
2022/04/07 10:56:39;;;;;;;0.82;0.60;;;11.90;99.90;;;;;;4972928;28;20125;-84
2022/04/07 10:59:31;;;;;;;0.45;0.40;;;11.90;99.90;;;;;;4973543;28;20460;-84
2022/04/07 11:02:31;;;;;;;;;;;12.00;99.90;;;;;;4975352;28;20122;-83
2022/04/07 11:05:24;;;;;;;0.47;0.40;;;12.10;99.90;;;;;;4965068;28;19934;-83
2022/04/07 11:08:23;;;;;;;1.17;0.50;;;12.20;99.90;;;;;;4972336;28;20051;-82
2022/04/07 11:11:54;;;;;;;1.65;0.40;;;12.40;26.80;;;;;;4969012;28;20480;-85
2022/04/07 11:14:46;;;;;;;0.60;0.50;;;12.40;1.00;;;;;;4972149;28;20071;-86
2022/04/07 11:17:45;;;;;;;3.03;0.50;;;12.60;1.00;;;;;;4957096;28;20062;-85
2022/04/07 11:21:07;;;;;;;2.55;0.50;;;12.40;1.00;;;;;;4947196;29;20051;-81
2022/04/07 11:24:07;;;;;;;1.95;0.57;;;12.90;1.00;;;;;;4969527;28;20439;-83
2022/04/07 11:27:35;;;;;;;1.15;0.50;;;12.80;1.00;;;;;;4966054;28;20046;-83
2022/04/07 11:30:39;;;;;;;1.77;0.50;;;12.60;1.00;;;;;;4956994;28;20106;-83
2022/04/07 11:33:30;;;;;;;1.75;0.50;;;13.10;99.90;;;;;;4972419;28;20047;-85
2022/04/07 11:36:34;;;;;;;1.65;0.40;;;13.30;99.90;;;;;;4964836;28;20160;-82
2022/04/07 11:39:25;;;;;;;0.90;0.60;;;13.20;99.90;;;;;;4973298;28;20079;-83
2022/04/07 11:42:17;;;;;;;0.70;0.40;;;12.90;1.00;;;;;;4977209;28;20047;-84
2022/04/07 11:45:05;;;;;;;;;;;12.60;1.00;;;;;;4991162;28;20178;-81
2022/04/07 11:47:53;;;;;;;0.38;0.38;;;12.30;1.00;;;;;;4990426;28;19931;-82
2022/04/07 11:50:41;;;;;;;2.80;0.40;;;12.00;1.00;;;;;;4976351;28;20126;-81
2022/04/07 11:53:31;;;;;;;2.78;0.50;;;12.00;1.00;;;;;;4976067;28;20186;-86
2022/04/07 11:56:27;;;;;;;0.40;0.40;;;12.00;1.00;;;;;;4987691;28;20054;-84
2022/04/07 11:59:22;;;;;;;0.38;0.38;;;11.90;1.00;;;;;;4976235;28;20042;-84
2022/04/07 12:02:18;;;;;;;4.07;0.40;;;12.00;29.30;;;;;;4973494;28;20094;-86
2022/04/07 12:05:11;;;;;;;1.73;0.50;;;11.70;99.90;;;;;;4965957;28;20413;-82
2022/04/07 12:08:15;;;;;;;1.90;0.50;;;11.80;99.90;;;;;;4966312;28;20047;-84
2022/04/07 12:11:05;;;;;;;0.50;0.50;;;11.40;99.90;;;;;;4978577;28;20440;-86
2022/04/07 12:14:00;;;;;;;2.83;0.50;;;11.40;99.90;;;;;;4976575;28;20472;-83
2022/04/07 12:16:49;;;;;;;1.38;0.45;;;11.30;1.10;;;;;;4976695;28;20391;-82
2022/04/07 12:19:44;;;;;;;0.50;0.50;;;11.30;95.00;;;;;;4984940;28;20464;-85
2022/04/07 12:22:34;;;;;;;0.45;0.40;;;11.30;99.90;;;;;;4977398;28;20439;-84
2022/04/07 12:25:30;;;;;;;0.52;0.52;;;11.20;90.70;;;;;;4963939;28;20189;-83
2022/04/07 12:28:18;;;;;;;0.70;0.60;;;11.20;1.00;;;;;;4953412;28;20054;-85
2022/04/07 12:31:24;;;;;;;1.45;0.47;;;11.20;58.10;;;;;;4990010;28;20050;-83
2022/04/07 12:34:13;;;;;;;0.40;0.40;;;11.30;99.90;;;;;;4995251;28;20046;-85
2022/04/07 12:37:01;;;;;;;0.60;0.60;;;11.20;1.00;;;;;;4981985;28;20046;-87
2022/04/07 12:39:49;;;;;;;1.63;0.52;;;11.30;1.00;;;;;;4971893;28;20046;-89
2022/04/07 12:42:54;;;;;;;3.30;0.57;;;11.40;99.90;;;;;;4972999;28;20054;-85
2022/04/07 12:45:58;;;;;;;0.40;0.40;;;11.30;99.90;;;;;;4957386;28;20498;-84
2022/04/07 12:49:03;;;;;;;0.60;0.50;;;11.20;99.90;;;;;;4976054;28;20387;-86
2022/04/07 12:52:06;;;;;;;0.43;0.40;;;11.20;99.90;;;;;;4978363;28;20058;-83
2022/04/07 12:54:59;;;;;;;0.60;0.50;;;11.30;99.90;;;;;;4974187;28;20077;-86
2022/04/07 12:57:46;;;;;;;0.50;0.50;;;11.10;99.90;;;;;;4963846;28;20066;-82
2022/04/07 13:00:58;;;;;;;1.85;0.50;;;11.30;43.70;;;;;;4965592;28;20361;-83
2022/04/07 13:04:00;;;;;;;0.50;0.40;;;11.50;99.90;;;;;;4974897;28;20414;-86
2022/04/07 13:06:54;;;;;;;0.40;0.40;;;11.50;34.80;;;;;;4976168;28;20046;-83
2022/04/07 13:09:42;;;;;;;0.55;0.40;;;11.50;1.00;;;;;;4975726;28;20503;-87
2022/04/07 13:12:30;;;;;;;1.10;0.50;;;11.60;99.90;;;;;;4975395;28;20054;-86
2022/04/07 13:15:18;;;;;;;0.40;0.40;;;11.90;99.90;;;;;;4974749;28;20050;-88
2022/04/07 13:18:06;;;;;;;1.60;0.55;;;12.00;1.00;;;;;;4975072;28;20046;-88
2022/04/07 13:21:05;;;;;;;0.40;0.40;;;12.20;1.00;;;;;;4975616;28;20043;-83
2022/04/07 13:23:59;;;;;;;4.10;0.63;;;12.40;90.60;;;;;;4962471;28;20047;-84
2022/04/07 13:26:47;;;;;;;0.85;0.50;;;12.30;1.00;;;;;;4961408;28;20122;-84
2022/04/07 13:29:36;;;;;;;0.50;0.50;;;12.60;1.00;;;;;;4975698;28;20046;-84
2022/04/07 13:32:26;;;;;;;0.90;0.50;;;13.00;99.90;;;;;;4975141;28;20058;-85
2022/04/07 13:35:16;;;;;;;3.33;0.50;;;12.70;99.90;;;;;;4963565;28;20150;-84
2022/04/07 13:38:04;;;;;;;2.05;0.60;;;12.40;99.90;;;;;;4965295;28;20094;-86
2022/04/07 13:40:52;;;;;;;1.27;0.52;;;12.60;99.90;;;;;;4981595;28;20042;-85
2022/04/07 13:43:40;;;;;;;0.47;0.47;;;12.70;99.90;;;;;;4974793;28;20057;-86
2022/04/07 13:46:28;;;;;;;0.40;0.40;;;12.70;99.90;;;;;;4971208;28;20476;-84
2022/04/07 13:49:16;;;;;;;0.40;0.40;;;12.50;99.90;;;;;;4973228;28;20332;-86
2022/04/07 13:52:05;;;;;;;0.57;0.50;;;12.30;99.90;;;;;;4972273;28;20382;-84
2022/04/07 13:54:53;;;;;;;1.55;0.40;;;12.20;99.90;;;;;;4972927;28;20066;-85
2022/04/07 13:57:44;;;;;;;1.67;0.40;;;12.30;99.90;;;;;;4988093;28;20050;-85
2022/04/07 14:00:40;;;;;;;0.40;0.40;;;12.70;99.90;;;;;;4961789;28;20051;-85
2022/04/07 14:03:29;;;;;;;0.40;0.40;;;12.80;99.90;;;;;;4974411;28;20046;-82
2022/04/07 14:06:17;;;;;;;0.50;0.40;;;12.80;99.90;;;;;;4985440;28;20057;-86
2022/04/07 14:09:11;;;;;;;0.52;0.52;;;12.70;99.90;;;;;;4989043;28;20071;-87
2022/04/07 14:11:59;;;;;;;0.45;0.40;;;12.80;50.70;;;;;;4987571;28;20043;-84
2022/04/07 14:14:46;;;;;;;0.40;0.40;;;13.00;1.00;;;;;;4988568;28;20055;-83
2022/04/07 14:17:33;;;;;;;0.80;0.40;;;13.00;1.00;;;;;;4986880;28;20054;-83
2022/04/07 14:20:21;;;;;;;0.88;0.75;;;13.00;1.00;;;;;;4986067;28;20043;-85
2022/04/07 14:23:11;;;;;;;0.98;0.60;;;12.90;1.00;;;;;;4989760;28;20061;-86
2022/04/07 14:25:59;;;;;;;0.80;0.40;;;12.80;1.00;;;;;;4988571;28;20070;-83
2022/04/07 14:28:49;;;;;;;1.20;0.50;;;13.10;1.00;;;;;;4970080;29;20051;-79
2022/04/07 14:31:36;;;;;;;2.50;0.50;;;13.40;1.00;;;;;;4974868;28;20046;-80
2022/04/07 14:34:24;;;;;;;1.13;0.40;;;13.30;1.00;;;;;;4977735;28;20042;-81
2022/04/07 14:37:11;;;;;;;0.40;0.40;;;12.80;1.00;;;;;;4994584;28;20607;-81
2022/04/07 14:40:01;;;;;;;0.85;0.47;;;12.90;1.00;;;;;;4971872;28;20038;-83
2022/04/07 14:42:48;;;;;;;2.50;0.50;;;13.30;1.00;;;;;;4997420;28;20042;-83
2022/04/07 14:45:38;;;;;;;2.30;0.50;;;13.80;1.00;;;;;;4991667;28;20151;-84
2022/04/07 14:48:26;;;;;;;1.45;0.57;;;14.40;99.90;;;;;;4990880;28;20146;-83
2022/04/07 14:51:14;;;;;;;2.50;0.50;;;14.30;99.90;;;;;;4989700;28;20054;-84
2022/04/07 14:54:02;;;;;;;0.65;0.40;;;14.30;99.90;;;;;;4986653;28;20062;-83
2022/04/07 14:56:51;;;;;;;3.20;0.80;;;14.20;99.90;;;;;;4979817;28;20049;-85
2022/04/07 14:59:39;;;;;;;6.20;0.50;;;14.10;99.90;;;;;;4993591;28;20058;-84